logo
Search for airport 
image banner adimage banner adimage banner ad
image banner ad

FLCP - Chipata

Located in Chipata, Zambia

ICAO - FLCP, IATA - CIP

Data provided by Airmate  

General information

Coordinates: S13°33'25" E32°35'14"
Elevation is 3359 feet MSL.
 
View others Airports in Eastern Province

Operational data

Special qualification required
Current time UTC:
Current local time:
Weather
TAF: TAF FLCP 151600Z 1518/1624 13010KT 9999 SCT040 BKN090 FM152000 CAVOK BECMG 1604/1606 12005KT BKN010 BECMG 1608/1610 BKN025
View NOTAMs / SUP AIP / TFR affecting this airport [VIEW]
Communications frequencies: [VIEW]

Runways:

RWY identifierQFULength (ft)Width (ft)SurfaceLDA (ft)
0878°265469UNK
26258°265469UNK
18169°482369UNK
36349°482369UNK

Airport contact information

Address: Chipata Zambia

Satellite view of FLCP